sensor_id;sensor_type;location;lat;lon;timestamp;temperature;humidity
21047;DHT22;10682;50.874;3.656;2023-12-20T00:02:19;6.30;99.90
21047;DHT22;10682;50.874;3.656;2023-12-20T00:04:46;6.30;99.90
21047;DHT22;10682;50.874;3.656;2023-12-20T00:07:13;6.30;99.90
21047;DHT22;10682;50.874;3.656;2023-12-20T00:09:40;6.30;99.90
21047;DHT22;10682;50.874;3.656;2023-12-20T00:12:07;6.30;99.90
21047;DHT22;10682;50.874;3.656;2023-12-20T00:14:35;6.20;99.90
21047;DHT22;10682;50.874;3.656;2023-12-20T00:17:02;6.20;99.90
21047;DHT22;10682;50.874;3.656;2023-12-20T00:19:29;6.30;99.90
21047;DHT22;10682;50.874;3.656;2023-12-20T00:21:56;6.30;99.90
21047;DHT22;10682;50.874;3.656;2023-12-20T00:24:23;6.40;99.90
21047;DHT22;10682;50.874;3.656;2023-12-20T00:26:50;6.40;99.90
21047;DHT22;10682;50.874;3.656;2023-12-20T00:29:17;6.40;99.90
21047;DHT22;10682;50.874;3.656;2023-12-20T00:31:44;6.40;99.90
21047;DHT22;10682;50.874;3.656;2023-12-20T00:34:12;6.40;99.90
21047;DHT22;10682;50.874;3.656;2023-12-20T00:36:39;6.40;99.90
21047;DHT22;10682;50.874;3.656;2023-12-20T00:39:06;6.30;99.90
21047;DHT22;10682;50.874;3.656;2023-12-20T00:41:33;6.30;99.90
21047;DHT22;10682;50.874;3.656;2023-12-20T00:44:00;6.20;99.90
21047;DHT22;10682;50.874;3.656;2023-12-20T00:46:27;6.20;99.90
21047;DHT22;10682;50.874;3.656;2023-12-20T00:48:54;6.20;99.90
21047;DHT22;10682;50.874;3.656;2023-12-20T00:51:22;6.20;99.90
21047;DHT22;10682;50.874;3.656;2023-12-20T00:53:50;6.10;99.90
21047;DHT22;10682;50.874;3.656;2023-12-20T00:56:21;6.10;99.90
21047;DHT22;10682;50.874;3.656;2023-12-20T00:58:48;6.10;99.90
21047;DHT22;10682;50.874;3.656;2023-12-20T01:01:15;6.10;99.90
21047;DHT22;10682;50.874;3.656;2023-12-20T01:03:42;6.00;99.90
21047;DHT22;10682;50.874;3.656;2023-12-20T01:06:10;5.90;99.90
21047;DHT22;10682;50.874;3.656;2023-12-20T01:08:37;5.90;99.90
21047;DHT22;10682;50.874;3.656;2023-12-20T01:11:05;5.80;99.90
21047;DHT22;10682;50.874;3.656;2023-12-20T01:13:32;5.90;99.90
21047;DHT22;10682;50.874;3.656;2023-12-20T01:15:59;5.90;99.90
21047;DHT22;10682;50.874;3.656;2023-12-20T01:18:27;6.00;99.90
21047;DHT22;10682;50.874;3.656;2023-12-20T01:20:54;6.00;99.90
21047;DHT22;10682;50.874;3.656;2023-12-20T01:23:21;6.10;99.90
21047;DHT22;10682;50.874;3.656;2023-12-20T01:25:48;6.10;99.90
21047;DHT22;10682;50.874;3.656;2023-12-20T01:28:15;6.20;99.90
21047;DHT22;10682;50.874;3.656;2023-12-20T01:30:43;6.20;99.90
21047;DHT22;10682;50.874;3.656;2023-12-20T01:33:10;6.20;99.90
21047;DHT22;10682;50.874;3.656;2023-12-20T01:35:37;6.20;99.90
21047;DHT22;10682;50.874;3.656;2023-12-20T01:38:04;6.20;99.90
21047;DHT22;10682;50.874;3.656;2023-12-20T01:40:31;6.20;99.90
21047;DHT22;10682;50.874;3.656;2023-12-20T01:43:02;6.20;99.90
21047;DHT22;10682;50.874;3.656;2023-12-20T01:45:34;6.30;99.90
21047;DHT22;10682;50.874;3.656;2023-12-20T01:48:02;6.30;99.90
21047;DHT22;10682;50.874;3.656;2023-12-20T01:50:31;6.40;99.90
21047;DHT22;10682;50.874;3.656;2023-12-20T01:53:01;6.40;99.90
21047;DHT22;10682;50.874;3.656;2023-12-20T01:55:31;6.30;99.90
21047;DHT22;10682;50.874;3.656;2023-12-20T01:57:59;6.40;99.90
21047;DHT22;10682;50.874;3.656;2023-12-20T02:00:28;6.30;99.90
21047;DHT22;10682;50.874;3.656;2023-12-20T02:02:55;6.40;99.90
21047;DHT22;10682;50.874;3.656;2023-12-20T02:05:24;6.40;99.90
21047;DHT22;10682;50.874;3.656;2023-12-20T02:07:52;6.40;99.90
21047;DHT22;10682;50.874;3.656;2023-12-20T02:10:19;6.40;99.90
21047;DHT22;10682;50.874;3.656;2023-12-20T02:12:47;6.40;99.90
21047;DHT22;10682;50.874;3.656;2023-12-20T02:15:14;6.40;99.90
21047;DHT22;10682;50.874;3.656;2023-12-20T02:17:41;6.40;99.90
21047;DHT22;10682;50.874;3.656;2023-12-20T02:20:09;6.40;99.90
21047;DHT22;10682;50.874;3.656;2023-12-20T02:22:37;6.40;99.90
21047;DHT22;10682;50.874;3.656;2023-12-20T02:25:04;6.40;99.90
21047;DHT22;10682;50.874;3.656;2023-12-20T02:27:31;6.50;99.90
21047;DHT22;10682;50.874;3.656;2023-12-20T02:29:58;6.40;99.90
21047;DHT22;10682;50.874;3.656;2023-12-20T02:32:25;6.40;99.90
21047;DHT22;10682;50.874;3.656;2023-12-20T02:34:53;6.40;99.90
21047;DHT22;10682;50.874;3.656;2023-12-20T02:37:21;6.50;99.90
21047;DHT22;10682;50.874;3.656;2023-12-20T02:39:48;6.50;99.90
21047;DHT22;10682;50.874;3.656;2023-12-20T02:42:15;6.50;99.90
21047;DHT22;10682;50.874;3.656;2023-12-20T02:44:42;6.50;99.90
21047;DHT22;10682;50.874;3.656;2023-12-20T02:47:09;6.50;99.90
21047;DHT22;10682;50.874;3.656;2023-12-20T02:49:36;6.50;99.90
21047;DHT22;10682;50.874;3.656;2023-12-20T02:52:04;6.50;99.90
21047;DHT22;10682;50.874;3.656;2023-12-20T02:54:31;6.40;99.90
21047;DHT22;10682;50.874;3.656;2023-12-20T02:56:58;6.40;99.90
21047;DHT22;10682;50.874;3.656;2023-12-20T02:59:25;6.40;99.90
21047;DHT22;10682;50.874;3.656;2023-12-20T03:01:52;6.40;99.90
21047;DHT22;10682;50.874;3.656;2023-12-20T03:04:19;6.40;99.90
21047;DHT22;10682;50.874;3.656;2023-12-20T03:06:47;6.30;99.90
21047;DHT22;10682;50.874;3.656;2023-12-20T03:09:14;6.20;99.90
21047;DHT22;10682;50.874;3.656;2023-12-20T03:11:41;6.10;99.90
21047;DHT22;10682;50.874;3.656;2023-12-20T03:14:08;6.10;99.90
21047;DHT22;10682;50.874;3.656;2023-12-20T03:16:35;6.10;99.90
21047;DHT22;10682;50.874;3.656;2023-12-20T03:19:02;6.00;99.90
21047;DHT22;10682;50.874;3.656;2023-12-20T03:21:30;6.00;99.90
21047;DHT22;10682;50.874;3.656;2023-12-20T03:23:57;6.00;99.90
21047;DHT22;10682;50.874;3.656;2023-12-20T03:26:24;6.00;99.90
21047;DHT22;10682;50.874;3.656;2023-12-20T03:28:51;6.00;99.90
21047;DHT22;10682;50.874;3.656;2023-12-20T03:31:18;6.00;99.90
21047;DHT22;10682;50.874;3.656;2023-12-20T03:33:46;5.90;99.90
21047;DHT22;10682;50.874;3.656;2023-12-20T03:36:13;5.90;99.90
21047;DHT22;10682;50.874;3.656;2023-12-20T03:38:40;5.90;99.90
21047;DHT22;10682;50.874;3.656;2023-12-20T03:41:07;5.90;99.90
21047;DHT22;10682;50.874;3.656;2023-12-20T03:43:35;5.80;99.90
21047;DHT22;10682;50.874;3.656;2023-12-20T03:46:03;5.80;99.90
21047;DHT22;10682;50.874;3.656;2023-12-20T03:48:31;5.70;99.90
21047;DHT22;10682;50.874;3.656;2023-12-20T03:50:58;5.70;99.90
21047;DHT22;10682;50.874;3.656;2023-12-20T03:53:25;5.70;99.90
21047;DHT22;10682;50.874;3.656;2023-12-20T03:55:52;5.70;99.90
21047;DHT22;10682;50.874;3.656;2023-12-20T03:58:19;5.80;99.90
21047;DHT22;10682;50.874;3.656;2023-12-20T04:00:46;5.80;99.90
21047;DHT22;10682;50.874;3.656;2023-12-20T04:03:14;5.80;99.90
21047;DHT22;10682;50.874;3.656;2023-12-20T04:05:41;5.80;99.90
21047;DHT22;10682;50.874;3.656;2023-12-20T04:08:09;5.80;99.90
21047;DHT22;10682;50.874;3.656;2023-12-20T04:10:36;5.80;99.90
21047;DHT22;10682;50.874;3.656;2023-12-20T04:13:04;5.90;99.90
21047;DHT22;10682;50.874;3.656;2023-12-20T04:15:31;5.90;99.90
21047;DHT22;10682;50.874;3.656;2023-12-20T04:17:58;5.90;99.90
21047;DHT22;10682;50.874;3.656;2023-12-20T04:20:26;5.90;99.90
21047;DHT22;10682;50.874;3.656;2023-12-20T04:22:53;5.80;99.90
21047;DHT22;10682;50.874;3.656;2023-12-20T04:25:20;5.70;99.90
21047;DHT22;10682;50.874;3.656;2023-12-20T04:27:47;5.70;99.90
21047;DHT22;10682;50.874;3.656;2023-12-20T04:30:15;5.60;99.90
21047;DHT22;10682;50.874;3.656;2023-12-20T04:32:42;5.60;99.90
21047;DHT22;10682;50.874;3.656;2023-12-20T04:35:09;5.50;99.90
21047;DHT22;10682;50.874;3.656;2023-12-20T04:37:36;5.50;99.90
21047;DHT22;10682;50.874;3.656;2023-12-20T04:40:04;5.40;99.90
21047;DHT22;10682;50.874;3.656;2023-12-20T04:42:32;5.50;99.90
21047;DHT22;10682;50.874;3.656;2023-12-20T04:44:59;5.50;99.90
21047;DHT22;10682;50.874;3.656;2023-12-20T04:47:26;5.50;99.90
21047;DHT22;10682;50.874;3.656;2023-12-20T04:49:53;5.40;99.90
21047;DHT22;10682;50.874;3.656;2023-12-20T04:52:21;5.40;99.90
21047;DHT22;10682;50.874;3.656;2023-12-20T04:54:48;5.40;99.90
21047;DHT22;10682;50.874;3.656;2023-12-20T04:57:15;5.40;99.90
21047;DHT22;10682;50.874;3.656;2023-12-20T04:59:42;5.40;99.90
21047;DHT22;10682;50.874;3.656;2023-12-20T05:02:09;5.40;99.90
21047;DHT22;10682;50.874;3.656;2023-12-20T05:04:36;5.40;99.90
21047;DHT22;10682;50.874;3.656;2023-12-20T05:07:04;5.40;99.90
21047;DHT22;10682;50.874;3.656;2023-12-20T05:09:32;5.30;99.90
21047;DHT22;10682;50.874;3.656;2023-12-20T05:12:00;5.30;99.90
21047;DHT22;10682;50.874;3.656;2023-12-20T05:14:27;5.30;99.90
21047;DHT22;10682;50.874;3.656;2023-12-20T05:16:54;5.30;99.90
21047;DHT22;10682;50.874;3.656;2023-12-20T05:19:21;5.20;99.90
21047;DHT22;10682;50.874;3.656;2023-12-20T05:21:48;5.30;99.90
21047;DHT22;10682;50.874;3.656;2023-12-20T05:24:16;5.20;99.90
21047;DHT22;10682;50.874;3.656;2023-12-20T05:26:43;5.20;99.90
21047;DHT22;10682;50.874;3.656;2023-12-20T05:29:10;5.20;99.90
21047;DHT22;10682;50.874;3.656;2023-12-20T05:31:37;5.20;99.90
21047;DHT22;10682;50.874;3.656;2023-12-20T05:34:04;5.20;99.90
21047;DHT22;10682;50.874;3.656;2023-12-20T05:36:32;5.20;99.90
21047;DHT22;10682;50.874;3.656;2023-12-20T05:38:59;5.30;99.90
21047;DHT22;10682;50.874;3.656;2023-12-20T05:41:26;5.30;99.90
21047;DHT22;10682;50.874;3.656;2023-12-20T05:43:53;5.30;99.90
21047;DHT22;10682;50.874;3.656;2023-12-20T05:46:20;5.30;99.90
21047;DHT22;10682;50.874;3.656;2023-12-20T05:48:48;5.40;99.90
21047;DHT22;10682;50.874;3.656;2023-12-20T05:51:15;5.40;99.90
21047;DHT22;10682;50.874;3.656;2023-12-20T05:53:43;5.50;99.90
21047;DHT22;10682;50.874;3.656;2023-12-20T05:56:11;5.50;99.90
21047;DHT22;10682;50.874;3.656;2023-12-20T05:58:39;5.60;99.90
21047;DHT22;10682;50.874;3.656;2023-12-20T06:01:06;5.70;99.90
21047;DHT22;10682;50.874;3.656;2023-12-20T06:03:35;5.70;99.90
21047;DHT22;10682;50.874;3.656;2023-12-20T06:06:09;5.70;99.90
21047;DHT22;10682;50.874;3.656;2023-12-20T06:08:42;5.70;99.90
21047;DHT22;10682;50.874;3.656;2023-12-20T06:11:10;5.60;99.90
21047;DHT22;10682;50.874;3.656;2023-12-20T06:13:37;5.50;99.90
21047;DHT22;10682;50.874;3.656;2023-12-20T06:16:06;5.40;99.90
21047;DHT22;10682;50.874;3.656;2023-12-20T06:18:36;5.40;99.90
21047;DHT22;10682;50.874;3.656;2023-12-20T06:21:04;5.40;99.90
21047;DHT22;10682;50.874;3.656;2023-12-20T06:23:31;5.30;99.90
21047;DHT22;10682;50.874;3.656;2023-12-20T06:25:58;5.30;99.90
21047;DHT22;10682;50.874;3.656;2023-12-20T06:28:25;5.20;99.90
21047;DHT22;10682;50.874;3.656;2023-12-20T06:30:52;5.20;99.90
21047;DHT22;10682;50.874;3.656;2023-12-20T06:33:21;5.10;99.90
21047;DHT22;10682;50.874;3.656;2023-12-20T06:35:49;5.10;99.90
21047;DHT22;10682;50.874;3.656;2023-12-20T06:38:18;5.10;99.90
21047;DHT22;10682;50.874;3.656;2023-12-20T06:40:45;5.10;99.90
21047;DHT22;10682;50.874;3.656;2023-12-20T06:43:13;5.10;99.90
21047;DHT22;10682;50.874;3.656;2023-12-20T06:45:58;5.10;99.90
21047;DHT22;10682;50.874;3.656;2023-12-20T06:48:25;5.10;99.90
21047;DHT22;10682;50.874;3.656;2023-12-20T06:50:52;5.10;99.90
21047;DHT22;10682;50.874;3.656;2023-12-20T06:53:19;5.10;99.90
21047;DHT22;10682;50.874;3.656;2023-12-20T06:55:47;5.00;99.90
21047;DHT22;10682;50.874;3.656;2023-12-20T06:58:14;5.00;99.90
21047;DHT22;10682;50.874;3.656;2023-12-20T07:00:41;5.00;99.90
21047;DHT22;10682;50.874;3.656;2023-12-20T07:03:09;5.00;99.90
21047;DHT22;10682;50.874;3.656;2023-12-20T07:05:36;5.10;99.90
21047;DHT22;10682;50.874;3.656;2023-12-20T07:08:04;5.10;99.90
21047;DHT22;10682;50.874;3.656;2023-12-20T07:10:31;5.10;99.90
21047;DHT22;10682;50.874;3.656;2023-12-20T07:12:58;5.00;99.90
21047;DHT22;10682;50.874;3.656;2023-12-20T07:15:26;5.00;99.90
21047;DHT22;10682;50.874;3.656;2023-12-20T07:17:53;5.00;99.90
21047;DHT22;10682;50.874;3.656;2023-12-20T07:20:21;5.00;99.90
21047;DHT22;10682;50.874;3.656;2023-12-20T07:22:48;5.00;99.90
21047;DHT22;10682;50.874;3.656;2023-12-20T07:25:15;5.00;99.90
21047;DHT22;10682;50.874;3.656;2023-12-20T07:27:42;5.00;99.90
21047;DHT22;10682;50.874;3.656;2023-12-20T07:30:11;4.90;99.90
21047;DHT22;10682;50.874;3.656;2023-12-20T07:32:39;5.00;99.90
21047;DHT22;10682;50.874;3.656;2023-12-20T07:35:06;5.00;99.90
21047;DHT22;10682;50.874;3.656;2023-12-20T07:37:34;5.00;99.90
21047;DHT22;10682;50.874;3.656;2023-12-20T07:40:01;5.00;99.90
21047;DHT22;10682;50.874;3.656;2023-12-20T07:42:31;5.00;99.90
21047;DHT22;10682;50.874;3.656;2023-12-20T07:44:58;5.00;99.90
21047;DHT22;10682;50.874;3.656;2023-12-20T07:47:25;5.00;99.90
21047;DHT22;10682;50.874;3.656;2023-12-20T07:49:52;4.90;99.90
21047;DHT22;10682;50.874;3.656;2023-12-20T07:52:20;5.00;99.90
21047;DHT22;10682;50.874;3.656;2023-12-20T07:54:49;5.00;99.90
21047;DHT22;10682;50.874;3.656;2023-12-20T07:57:16;5.00;99.90
21047;DHT22;10682;50.874;3.656;2023-12-20T07:59:43;5.00;99.90
21047;DHT22;10682;50.874;3.656;2023-12-20T08:02:11;5.00;99.90
21047;DHT22;10682;50.874;3.656;2023-12-20T08:04:38;5.10;99.90
21047;DHT22;10682;50.874;3.656;2023-12-20T08:07:05;5.20;99.90
21047;DHT22;10682;50.874;3.656;2023-12-20T08:09:32;5.30;99.90
21047;DHT22;10682;50.874;3.656;2023-12-20T08:12:00;5.40;99.90
21047;DHT22;10682;50.874;3.656;2023-12-20T08:14:27;5.60;99.90
21047;DHT22;10682;50.874;3.656;2023-12-20T08:16:55;5.70;99.90
21047;DHT22;10682;50.874;3.656;2023-12-20T08:19:21;5.90;99.90
21047;DHT22;10682;50.874;3.656;2023-12-20T08:21:49;6.00;99.90
21047;DHT22;10682;50.874;3.656;2023-12-20T08:24:16;6.20;99.90
21047;DHT22;10682;50.874;3.656;2023-12-20T08:26:43;6.30;99.90
21047;DHT22;10682;50.874;3.656;2023-12-20T08:29:13;6.40;99.90
21047;DHT22;10682;50.874;3.656;2023-12-20T08:31:40;6.50;99.90
21047;DHT22;10682;50.874;3.656;2023-12-20T08:34:07;6.70;99.90
21047;DHT22;10682;50.874;3.656;2023-12-20T08:36:35;6.90;99.90
21047;DHT22;10682;50.874;3.656;2023-12-20T08:39:02;7.00;99.90
21047;DHT22;10682;50.874;3.656;2023-12-20T08:41:32;7.10;99.90
21047;DHT22;10682;50.874;3.656;2023-12-20T08:43:59;7.20;99.90
21047;DHT22;10682;50.874;3.656;2023-12-20T08:46:27;7.40;99.90
21047;DHT22;10682;50.874;3.656;2023-12-20T08:48:54;7.50;99.90
21047;DHT22;10682;50.874;3.656;2023-12-20T08:51:22;7.50;99.90
21047;DHT22;10682;50.874;3.656;2023-12-20T08:53:50;7.50;99.90
21047;DHT22;10682;50.874;3.656;2023-12-20T08:56:18;7.30;99.90
21047;DHT22;10682;50.874;3.656;2023-12-20T08:58:46;7.20;99.90
21047;DHT22;10682;50.874;3.656;2023-12-20T09:01:14;7.10;99.90
21047;DHT22;10682;50.874;3.656;2023-12-20T09:03:43;7.00;99.90
21047;DHT22;10682;50.874;3.656;2023-12-20T09:06:10;6.90;99.90
21047;DHT22;10682;50.874;3.656;2023-12-20T09:08:37;7.00;99.90
21047;DHT22;10682;50.874;3.656;2023-12-20T09:11:04;7.10;99.90
21047;DHT22;10682;50.874;3.656;2023-12-20T09:13:32;6.90;99.90
21047;DHT22;10682;50.874;3.656;2023-12-20T09:15:59;6.70;99.90
21047;DHT22;10682;50.874;3.656;2023-12-20T09:18:26;6.60;99.90
21047;DHT22;10682;50.874;3.656;2023-12-20T09:20:54;6.60;99.90
21047;DHT22;10682;50.874;3.656;2023-12-20T09:23:22;6.60;99.90
21047;DHT22;10682;50.874;3.656;2023-12-20T09:25:49;6.60;99.90
21047;DHT22;10682;50.874;3.656;2023-12-20T09:28:16;6.60;99.90
21047;DHT22;10682;50.874;3.656;2023-12-20T09:30:43;6.60;99.90
21047;DHT22;10682;50.874;3.656;2023-12-20T09:33:12;6.70;99.90
21047;DHT22;10682;50.874;3.656;2023-12-20T09:35:39;6.70;99.90
21047;DHT22;10682;50.874;3.656;2023-12-20T09:38:06;6.70;99.90
21047;DHT22;10682;50.874;3.656;2023-12-20T09:40:35;6.70;99.90
21047;DHT22;10682;50.874;3.656;2023-12-20T09:43:13;6.80;99.90
21047;DHT22;10682;50.874;3.656;2023-12-20T09:45:45;6.80;99.90
21047;DHT22;10682;50.874;3.656;2023-12-20T09:48:17;6.90;99.90
21047;DHT22;10682;50.874;3.656;2023-12-20T09:50:46;7.00;99.90
21047;DHT22;10682;50.874;3.656;2023-12-20T09:53:19;7.10;99.90
21047;DHT22;10682;50.874;3.656;2023-12-20T09:55:50;7.10;99.90
21047;DHT22;10682;50.874;3.656;2023-12-20T09:58:17;7.20;99.90
21047;DHT22;10682;50.874;3.656;2023-12-20T10:00:45;7.30;99.90
21047;DHT22;10682;50.874;3.656;2023-12-20T10:03:15;7.30;99.90
21047;DHT22;10682;50.874;3.656;2023-12-20T10:05:43;7.30;99.90
21047;DHT22;10682;50.874;3.656;2023-12-20T10:08:11;7.30;99.90
21047;DHT22;10682;50.874;3.656;2023-12-20T10:10:38;7.40;99.90
21047;DHT22;10682;50.874;3.656;2023-12-20T10:13:15;7.40;99.90
21047;DHT22;10682;50.874;3.656;2023-12-20T10:15:42;7.50;99.90
21047;DHT22;10682;50.874;3.656;2023-12-20T10:18:12;7.50;99.90
21047;DHT22;10682;50.874;3.656;2023-12-20T10:20:40;7.60;99.90
21047;DHT22;10682;50.874;3.656;2023-12-20T10:23:08;7.60;99.90
21047;DHT22;10682;50.874;3.656;2023-12-20T10:25:36;7.70;99.90
21047;DHT22;10682;50.874;3.656;2023-12-20T10:28:16;7.70;99.90
21047;DHT22;10682;50.874;3.656;2023-12-20T10:30:50;7.80;99.90
21047;DHT22;10682;50.874;3.656;2023-12-20T10:33:28;7.80;99.90
21047;DHT22;10682;50.874;3.656;2023-12-20T10:35:59;7.80;99.90
21047;DHT22;10682;50.874;3.656;2023-12-20T10:38:27;7.80;99.90
21047;DHT22;10682;50.874;3.656;2023-12-20T10:40:58;7.80;99.90
21047;DHT22;10682;50.874;3.656;2023-12-20T10:43:28;7.90;99.90
21047;DHT22;10682;50.874;3.656;2023-12-20T10:45:57;7.90;99.90
21047;DHT22;10682;50.874;3.656;2023-12-20T10:48:26;8.00;99.90
21047;DHT22;10682;50.874;3.656;2023-12-20T10:50:58;8.00;99.90
21047;DHT22;10682;50.874;3.656;2023-12-20T10:53:25;8.10;99.90
21047;DHT22;10682;50.874;3.656;2023-12-20T10:55:55;8.20;99.90
21047;DHT22;10682;50.874;3.656;2023-12-20T10:58:26;8.20;99.90
21047;DHT22;10682;50.874;3.656;2023-12-20T11:01:00;8.30;99.90
21047;DHT22;10682;50.874;3.656;2023-12-20T11:03:35;8.30;99.90
21047;DHT22;10682;50.874;3.656;2023-12-20T11:06:08;8.30;99.90
21047;DHT22;10682;50.874;3.656;2023-12-20T11:09:03;8.30;99.90
21047;DHT22;10682;50.874;3.656;2023-12-20T11:11:42;8.30;99.90
21047;DHT22;10682;50.874;3.656;2023-12-20T11:14:31;8.30;99.90
21047;DHT22;10682;50.874;3.656;2023-12-20T11:17:09;8.40;99.90
21047;DHT22;10682;50.874;3.656;2023-12-20T11:22:29;8.40;99.90
21047;DHT22;10682;50.874;3.656;2023-12-20T11:25:11;8.50;99.90
21047;DHT22;10682;50.874;3.656;2023-12-20T11:27:42;8.50;99.90
21047;DHT22;10682;50.874;3.656;2023-12-20T11:30:12;8.60;99.90
21047;DHT22;10682;50.874;3.656;2023-12-20T11:32:41;8.60;99.90
21047;DHT22;10682;50.874;3.656;2023-12-20T11:37:39;8.60;99.90
21047;DHT22;10682;50.874;3.656;2023-12-20T11:40:16;8.50;99.90
21047;DHT22;10682;50.874;3.656;2023-12-20T11:42:45;8.60;99.90
21047;DHT22;10682;50.874;3.656;2023-12-20T11:45:18;8.60;99.90
21047;DHT22;10682;50.874;3.656;2023-12-20T11:47:50;8.60;99.90
21047;DHT22;10682;50.874;3.656;2023-12-20T11:50:19;8.60;99.90
21047;DHT22;10682;50.874;3.656;2023-12-20T11:52:47;8.70;99.90
21047;DHT22;10682;50.874;3.656;2023-12-20T11:55:15;8.70;99.90
21047;DHT22;10682;50.874;3.656;2023-12-20T11:57:43;8.70;99.90
21047;DHT22;10682;50.874;3.656;2023-12-20T12:00:13;8.70;99.90
21047;DHT22;10682;50.874;3.656;2023-12-20T12:02:41;8.70;99.90
21047;DHT22;10682;50.874;3.656;2023-12-20T12:05:10;8.70;99.90
21047;DHT22;10682;50.874;3.656;2023-12-20T12:07:37;8.70;99.90
21047;DHT22;10682;50.874;3.656;2023-12-20T12:10:05;8.80;99.90
21047;DHT22;10682;50.874;3.656;2023-12-20T12:12:32;8.80;99.90
21047;DHT22;10682;50.874;3.656;2023-12-20T12:15:00;8.80;99.90
21047;DHT22;10682;50.874;3.656;2023-12-20T12:17:27;8.90;99.90
21047;DHT22;10682;50.874;3.656;2023-12-20T12:20:05;8.90;99.90
21047;DHT22;10682;50.874;3.656;2023-12-20T12:22:33;8.90;99.90
21047;DHT22;10682;50.874;3.656;2023-12-20T12:25:10;9.00;99.90
21047;DHT22;10682;50.874;3.656;2023-12-20T12:27:42;9.00;99.90
21047;DHT22;10682;50.874;3.656;2023-12-20T12:30:10;9.00;99.90
21047;DHT22;10682;50.874;3.656;2023-12-20T12:32:39;9.00;99.90
21047;DHT22;10682;50.874;3.656;2023-12-20T12:35:07;9.00;99.90
21047;DHT22;10682;50.874;3.656;2023-12-20T12:37:38;9.10;99.90
21047;DHT22;10682;50.874;3.656;2023-12-20T12:40:14;9.10;99.90
21047;DHT22;10682;50.874;3.656;2023-12-20T12:42:44;9.20;99.90
21047;DHT22;10682;50.874;3.656;2023-12-20T12:45:12;9.20;99.90
21047;DHT22;10682;50.874;3.656;2023-12-20T12:47:39;9.20;99.90
21047;DHT22;10682;50.874;3.656;2023-12-20T12:50:07;9.30;99.90
21047;DHT22;10682;50.874;3.656;2023-12-20T12:52:35;9.30;99.90
21047;DHT22;10682;50.874;3.656;2023-12-20T12:55:02;9.40;99.90
21047;DHT22;10682;50.874;3.656;2023-12-20T12:57:32;9.40;99.90
21047;DHT22;10682;50.874;3.656;2023-12-20T13:00:01;9.50;99.90
21047;DHT22;10682;50.874;3.656;2023-12-20T13:02:29;9.50;99.90
21047;DHT22;10682;50.874;3.656;2023-12-20T13:04:57;9.50;99.90
21047;DHT22;10682;50.874;3.656;2023-12-20T13:07:24;9.50;99.90
21047;DHT22;10682;50.874;3.656;2023-12-20T13:09:52;9.50;99.90
21047;DHT22;10682;50.874;3.656;2023-12-20T13:12:19;9.50;99.90
21047;DHT22;10682;50.874;3.656;2023-12-20T13:14:46;9.60;99.90
21047;DHT22;10682;50.874;3.656;2023-12-20T13:17:13;9.60;99.90
21047;DHT22;10682;50.874;3.656;2023-12-20T13:19:42;9.60;99.90
21047;DHT22;10682;50.874;3.656;2023-12-20T13:22:09;9.70;99.90
21047;DHT22;10682;50.874;3.656;2023-12-20T13:24:36;9.70;99.90
21047;DHT22;10682;50.874;3.656;2023-12-20T13:27:03;9.70;99.90
21047;DHT22;10682;50.874;3.656;2023-12-20T13:29:31;9.70;99.90
21047;DHT22;10682;50.874;3.656;2023-12-20T13:31:58;9.70;99.90
21047;DHT22;10682;50.874;3.656;2023-12-20T13:34:25;9.70;99.90
21047;DHT22;10682;50.874;3.656;2023-12-20T13:36:52;9.70;99.90
21047;DHT22;10682;50.874;3.656;2023-12-20T13:39:20;9.70;99.90
21047;DHT22;10682;50.874;3.656;2023-12-20T13:41:48;9.80;99.90
21047;DHT22;10682;50.874;3.656;2023-12-20T13:44:15;9.80;99.90
21047;DHT22;10682;50.874;3.656;2023-12-20T13:46:42;9.80;99.90
21047;DHT22;10682;50.874;3.656;2023-12-20T13:49:09;9.80;99.90
21047;DHT22;10682;50.874;3.656;2023-12-20T13:51:37;9.90;99.90
21047;DHT22;10682;50.874;3.656;2023-12-20T13:54:04;9.90;99.90
21047;DHT22;10682;50.874;3.656;2023-12-20T13:56:31;9.90;99.90
21047;DHT22;10682;50.874;3.656;2023-12-20T13:59:12;9.80;99.90
21047;DHT22;10682;50.874;3.656;2023-12-20T14:01:40;9.80;99.90
21047;DHT22;10682;50.874;3.656;2023-12-20T14:04:07;9.80;99.90
21047;DHT22;10682;50.874;3.656;2023-12-20T14:06:34;9.80;99.90
21047;DHT22;10682;50.874;3.656;2023-12-20T14:09:02;9.80;99.90
21047;DHT22;10682;50.874;3.656;2023-12-20T14:11:32;9.80;99.90
21047;DHT22;10682;50.874;3.656;2023-12-20T14:13:59;9.80;99.90
21047;DHT22;10682;50.874;3.656;2023-12-20T14:16:28;9.80;99.90
21047;DHT22;10682;50.874;3.656;2023-12-20T14:18:55;9.80;99.90
21047;DHT22;10682;50.874;3.656;2023-12-20T14:21:24;9.70;99.90
21047;DHT22;10682;50.874;3.656;2023-12-20T14:23:51;9.80;99.90
21047;DHT22;10682;50.874;3.656;2023-12-20T14:26:18;9.80;99.90
21047;DHT22;10682;50.874;3.656;2023-12-20T14:28:45;9.80;99.90
21047;DHT22;10682;50.874;3.656;2023-12-20T14:31:12;9.80;99.90
21047;DHT22;10682;50.874;3.656;2023-12-20T14:33:40;9.80;99.90
21047;DHT22;10682;50.874;3.656;2023-12-20T14:36:08;9.80;99.90
21047;DHT22;10682;50.874;3.656;2023-12-20T14:38:35;9.80;99.90
21047;DHT22;10682;50.874;3.656;2023-12-20T14:41:03;9.80;99.90
21047;DHT22;10682;50.874;3.656;2023-12-20T14:43:32;9.80;99.90
21047;DHT22;10682;50.874;3.656;2023-12-20T14:45:59;9.80;99.90
21047;DHT22;10682;50.874;3.656;2023-12-20T14:48:26;9.80;99.90
21047;DHT22;10682;50.874;3.656;2023-12-20T14:50:54;9.80;99.90
21047;DHT22;10682;50.874;3.656;2023-12-20T14:53:21;9.80;99.90
21047;DHT22;10682;50.874;3.656;2023-12-20T14:55:49;9.80;99.90
21047;DHT22;10682;50.874;3.656;2023-12-20T14:58:17;9.70;99.90
21047;DHT22;10682;50.874;3.656;2023-12-20T15:00:45;9.70;99.90
21047;DHT22;10682;50.874;3.656;2023-12-20T15:03:12;9.80;99.90
21047;DHT22;10682;50.874;3.656;2023-12-20T15:05:39;9.80;99.90
21047;DHT22;10682;50.874;3.656;2023-12-20T15:08:07;9.80;99.90
21047;DHT22;10682;50.874;3.656;2023-12-20T15:10:35;9.80;99.90
21047;DHT22;10682;50.874;3.656;2023-12-20T15:13:02;9.80;99.90
21047;DHT22;10682;50.874;3.656;2023-12-20T15:15:30;9.70;99.90
21047;DHT22;10682;50.874;3.656;2023-12-20T15:17:59;9.70;99.90
21047;DHT22;10682;50.874;3.656;2023-12-20T15:20:27;9.80;99.90
21047;DHT22;10682;50.874;3.656;2023-12-20T15:22:54;9.80;99.90
21047;DHT22;10682;50.874;3.656;2023-12-20T15:25:22;9.80;99.90
21047;DHT22;10682;50.874;3.656;2023-12-20T15:27:49;9.70;99.90
21047;DHT22;10682;50.874;3.656;2023-12-20T15:30:20;9.70;99.90
21047;DHT22;10682;50.874;3.656;2023-12-20T15:32:47;9.70;99.90
21047;DHT22;10682;50.874;3.656;2023-12-20T15:35:14;9.70;99.90
21047;DHT22;10682;50.874;3.656;2023-12-20T15:37:42;9.70;99.90
21047;DHT22;10682;50.874;3.656;2023-12-20T15:40:10;9.70;99.90
21047;DHT22;10682;50.874;3.656;2023-12-20T15:42:39;9.70;99.90
21047;DHT22;10682;50.874;3.656;2023-12-20T15:45:07;9.70;99.90
21047;DHT22;10682;50.874;3.656;2023-12-20T15:47:35;9.70;99.90
21047;DHT22;10682;50.874;3.656;2023-12-20T15:50:05;9.70;99.90
21047;DHT22;10682;50.874;3.656;2023-12-20T15:52:34;9.70;99.90
21047;DHT22;10682;50.874;3.656;2023-12-20T15:55:04;9.60;99.90
21047;DHT22;10682;50.874;3.656;2023-12-20T15:57:31;9.60;99.90